createdAt,value
2022-10-18T00:00:29.133Z,51.73
2022-10-18T00:01:29.196Z,51.74
2022-10-18T00:02:29.321Z,51.73
2022-10-18T00:03:29.394Z,51.75
2022-10-18T00:04:29.431Z,51.74
2022-10-18T00:05:29.498Z,51.72
2022-10-18T00:06:29.573Z,51.76
2022-10-18T00:07:29.941Z,51.75
2022-10-18T00:08:29.767Z,51.74
2022-10-18T00:09:29.847Z,51.78
2022-10-18T00:10:29.894Z,51.80
2022-10-18T00:11:29.965Z,51.79
2022-10-18T00:12:30.072Z,51.80
2022-10-18T00:13:30.147Z,51.79
2022-10-18T00:14:30.232Z,51.78
2022-10-18T00:15:30.301Z,51.82
2022-10-18T00:16:30.406Z,51.83
2022-10-18T00:17:30.799Z,51.82
2022-10-18T00:18:30.754Z,51.83
2022-10-18T00:19:30.615Z,51.84
2022-10-18T00:20:30.687Z,51.85
2022-10-18T00:21:30.757Z,51.87
2022-10-18T00:22:31.079Z,51.86
2022-10-18T00:23:30.910Z,51.85
2022-10-18T00:24:30.981Z,51.85
2022-10-18T00:25:31.065Z,51.84
2022-10-18T00:26:31.152Z,51.86
2022-10-18T00:27:31.206Z,51.83
2022-10-18T00:28:31.345Z,51.81
2022-10-18T00:29:31.362Z,51.80
2022-10-18T00:30:31.439Z,51.79
2022-10-18T00:31:31.542Z,51.82
2022-10-18T00:32:31.969Z,51.77
2022-10-18T00:33:31.687Z,51.79
2022-10-18T00:34:31.780Z,51.81
2022-10-18T00:35:31.835Z,51.80
2022-10-18T00:36:31.907Z,51.79
2022-10-18T00:37:31.988Z,51.78
2022-10-18T00:38:32.087Z,51.76
2022-10-18T00:39:32.165Z,51.77
2022-10-18T00:40:32.252Z,51.78
2022-10-18T00:41:32.322Z,51.76
2022-10-18T00:42:32.648Z,51.78
2022-10-18T00:43:32.501Z,51.79
2022-10-18T00:44:32.584Z,51.77
2022-10-18T00:45:32.657Z,51.76
2022-10-18T00:46:32.741Z,51.74
2022-10-18T00:47:32.837Z,51.71
2022-10-18T00:48:32.902Z,51.71
2022-10-18T00:49:32.987Z,51.71
2022-10-18T00:50:33.071Z,51.71
2022-10-18T00:51:33.163Z,51.69
2022-10-18T00:52:33.565Z,51.72
2022-10-18T00:53:33.318Z,51.72
2022-10-18T00:54:33.407Z,51.74
2022-10-18T00:55:33.496Z,51.74
2022-10-18T00:56:33.575Z,51.72
2022-10-18T00:57:33.673Z,51.73
2022-10-18T00:58:33.717Z,51.74
2022-10-18T00:59:33.788Z,51.75
2022-10-18T01:00:33.871Z,51.77
2022-10-18T01:01:34.015Z,51.79
2022-10-18T01:02:34.189Z,51.80
2022-10-18T01:03:34.122Z,51.76
2022-10-18T01:04:34.210Z,51.77
2022-10-18T01:05:34.290Z,51.81
2022-10-18T01:06:34.363Z,51.86
2022-10-18T01:07:34.504Z,51.87
2022-10-18T01:08:34.508Z,51.86
2022-10-18T01:09:34.591Z,51.84
2022-10-18T01:10:34.664Z,51.84
2022-10-18T01:11:34.805Z,51.86
2022-10-18T01:12:34.843Z,51.84
2022-10-18T01:13:34.927Z,51.86
2022-10-18T01:14:34.999Z,51.87
2022-10-18T01:15:35.085Z,51.87
2022-10-18T01:16:35.180Z,51.86
2022-10-18T01:17:35.260Z,51.89
2022-10-18T01:18:35.345Z,51.90
2022-10-18T01:19:35.418Z,51.93
2022-10-18T01:20:35.581Z,51.95
2022-10-18T01:21:35.657Z,51.94
2022-10-18T01:22:35.658Z,51.91
2022-10-18T01:23:35.750Z,51.91
2022-10-18T01:24:35.812Z,51.93
2022-10-18T01:25:35.925Z,51.91
2022-10-18T01:26:35.989Z,51.95
2022-10-18T01:27:36.033Z,51.95
2022-10-18T01:28:36.170Z,51.98
2022-10-18T01:29:36.186Z,51.98
2022-10-18T01:30:36.248Z,51.96
2022-10-18T01:31:36.347Z,51.97
2022-10-18T01:32:36.428Z,51.96
2022-10-18T01:33:36.499Z,51.98
2022-10-18T01:34:36.569Z,51.99
2022-10-18T01:35:36.638Z,51.98
2022-10-18T01:36:36.748Z,52.00
2022-10-18T01:37:36.811Z,52.00
2022-10-18T01:38:36.903Z,51.98
2022-10-18T01:39:36.952Z,51.96
2022-10-18T01:40:37.016Z,51.96
2022-10-18T01:41:37.132Z,51.95
2022-10-18T01:42:37.164Z,51.96
2022-10-18T01:43:37.238Z,51.91
2022-10-18T01:44:37.308Z,51.92
2022-10-18T01:45:37.382Z,51.91
2022-10-18T01:46:37.475Z,51.87
2022-10-18T01:47:37.568Z,51.88
2022-10-18T01:48:37.621Z,51.81
2022-10-18T01:49:37.692Z,51.80
2022-10-18T01:50:37.757Z,51.79
2022-10-18T01:51:37.848Z,51.78
2022-10-18T01:52:37.915Z,51.76
2022-10-18T01:53:38.024Z,51.74
2022-10-18T01:54:38.076Z,51.72
2022-10-18T01:55:38.139Z,51.71
2022-10-18T01:56:38.242Z,51.76
2022-10-18T01:57:38.308Z,51.71
2022-10-18T01:58:38.383Z,51.74
2022-10-18T01:59:38.467Z,51.71
2022-10-18T02:00:38.542Z,51.68
2022-10-18T02:01:38.622Z,51.73
2022-10-18T02:02:38.703Z,51.72
2022-10-18T02:03:38.803Z,51.69
2022-10-18T02:04:38.872Z,51.73
2022-10-18T02:05:38.946Z,51.71
2022-10-18T02:06:39.029Z,51.72
2022-10-18T02:07:39.118Z,51.72
2022-10-18T02:08:39.179Z,51.72
2022-10-18T02:09:39.255Z,51.71
2022-10-18T02:10:39.344Z,51.69
2022-10-18T02:11:39.447Z,51.67
2022-10-18T02:12:39.501Z,51.68
2022-10-18T02:13:39.598Z,51.68
2022-10-18T02:14:39.688Z,51.70
2022-10-18T02:15:39.769Z,51.71
2022-10-18T02:16:39.908Z,51.73
2022-10-18T02:17:39.933Z,51.70
2022-10-18T02:18:40.027Z,51.69
2022-10-18T02:19:40.084Z,51.64
2022-10-18T02:20:40.158Z,51.67
2022-10-18T02:21:40.249Z,51.66
2022-10-18T02:22:40.303Z,51.62
2022-10-18T02:23:40.388Z,51.63
2022-10-18T02:24:40.482Z,51.60
2022-10-18T02:25:40.551Z,51.61
2022-10-18T02:26:40.638Z,51.62
2022-10-18T02:27:40.706Z,51.63
2022-10-18T02:28:40.796Z,51.64
2022-10-18T02:29:40.879Z,51.62
2022-10-18T02:30:40.944Z,51.63
2022-10-18T02:31:41.045Z,51.67
2022-10-18T02:32:41.089Z,51.64
2022-10-18T02:33:41.192Z,51.67
2022-10-18T02:34:41.261Z,51.72
2022-10-18T02:35:41.352Z,51.70
2022-10-18T02:36:41.438Z,51.66
2022-10-18T02:37:41.530Z,51.68
2022-10-18T02:38:41.605Z,51.68
2022-10-18T02:39:41.688Z,51.65
2022-10-18T02:40:41.780Z,51.64
2022-10-18T02:41:41.888Z,51.64
2022-10-18T02:42:41.929Z,51.64
2022-10-18T02:43:42.037Z,51.63
2022-10-18T02:44:42.104Z,51.65
2022-10-18T02:45:42.174Z,51.67
2022-10-18T02:46:42.258Z,51.67
2022-10-18T02:47:42.334Z,51.68
2022-10-18T02:48:42.403Z,51.70
2022-10-18T02:49:42.486Z,51.72
2022-10-18T02:50:42.576Z,51.74
2022-10-18T02:51:42.652Z,51.76
2022-10-18T02:52:42.707Z,51.78
2022-10-18T02:53:42.820Z,51.80
2022-10-18T02:54:42.843Z,51.82
2022-10-18T02:55:42.936Z,51.84
2022-10-18T02:56:42.996Z,51.89
2022-10-18T02:57:43.069Z,51.90
2022-10-18T02:58:43.182Z,51.92
2022-10-18T02:59:43.236Z,51.91
2022-10-18T03:00:43.280Z,51.94
2022-10-18T03:01:43.444Z,51.98
2022-10-18T03:02:43.462Z,52.02
2022-10-18T03:03:43.531Z,52.04
2022-10-18T03:04:43.611Z,52.11
2022-10-18T03:05:43.700Z,52.11
2022-10-18T03:06:43.792Z,52.16
2022-10-18T03:07:43.886Z,52.20
2022-10-18T03:08:43.967Z,52.22
2022-10-18T03:09:44.059Z,52.28
2022-10-18T03:10:44.120Z,52.30
2022-10-18T03:11:44.209Z,52.30
2022-10-18T03:12:44.300Z,52.27
2022-10-18T03:13:44.389Z,52.34
2022-10-18T03:14:44.421Z,52.32
2022-10-18T03:15:44.509Z,52.32
2022-10-18T03:16:44.613Z,52.29
2022-10-18T03:17:44.655Z,52.29
2022-10-18T03:18:44.743Z,52.29
2022-10-18T03:19:44.840Z,52.35
2022-10-18T03:20:44.940Z,52.37
2022-10-18T03:21:45.023Z,52.37
2022-10-18T03:22:45.064Z,52.34
2022-10-18T03:23:45.170Z,52.28
2022-10-18T03:24:45.217Z,52.27
2022-10-18T03:25:46.413Z,52.21
2022-10-18T03:26:45.394Z,52.17
2022-10-18T03:27:45.504Z,52.15
2022-10-18T03:28:45.650Z,52.17
2022-10-18T03:29:45.671Z,52.19
2022-10-18T03:30:45.940Z,52.22
2022-10-18T03:31:45.812Z,52.20
2022-10-18T03:32:45.894Z,52.19
2022-10-18T03:33:45.967Z,52.16
2022-10-18T03:34:46.075Z,52.17
2022-10-18T03:35:46.136Z,52.13
2022-10-18T03:36:46.215Z,52.07
2022-10-18T03:37:46.297Z,52.07
2022-10-18T03:38:46.417Z,52.05
2022-10-18T03:39:46.473Z,52.11
2022-10-18T03:40:46.563Z,52.14
2022-10-18T03:41:46.630Z,52.14
2022-10-18T03:42:46.711Z,52.12
2022-10-18T03:43:46.878Z,52.14
2022-10-18T03:44:46.887Z,52.15
2022-10-18T03:45:46.979Z,52.15
2022-10-18T03:46:47.048Z,52.21
2022-10-18T03:47:47.138Z,52.27
2022-10-18T03:48:47.225Z,52.27
2022-10-18T03:49:47.292Z,52.27
2022-10-18T03:50:47.378Z,52.29
2022-10-18T03:51:47.449Z,52.32
2022-10-18T03:52:47.527Z,52.35
2022-10-18T03:53:47.632Z,52.37
2022-10-18T03:54:47.701Z,52.36
2022-10-18T03:55:47.786Z,52.38
2022-10-18T03:56:47.874Z,52.41
2022-10-18T03:57:47.940Z,52.45
2022-10-18T03:58:48.014Z,52.50
2022-10-18T03:59:48.190Z,52.50
2022-10-18T04:00:48.232Z,52.58
2022-10-18T04:01:48.327Z,52.62
2022-10-18T04:02:51.937Z,52.56
2022-10-18T04:03:48.436Z,52.60
2022-10-18T04:04:48.498Z,52.65
2022-10-18T04:05:48.613Z,52.67
2022-10-18T04:06:48.679Z,52.69
2022-10-18T04:07:48.755Z,52.67
2022-10-18T04:08:48.821Z,52.73
2022-10-18T04:09:48.895Z,52.75
2022-10-18T04:10:48.987Z,52.72
2022-10-18T04:11:49.084Z,52.69
2022-10-18T04:12:49.146Z,52.70
2022-10-18T04:13:49.221Z,52.76
2022-10-18T04:14:49.312Z,52.76
2022-10-18T04:15:49.407Z,52.81
2022-10-18T04:16:49.484Z,52.82
2022-10-18T04:17:49.733Z,52.79
2022-10-18T04:18:49.693Z,52.78
2022-10-18T04:19:49.742Z,52.81
2022-10-18T04:20:49.817Z,52.77
2022-10-18T04:21:49.884Z,52.75
2022-10-18T04:22:49.992Z,52.83
2022-10-18T04:23:50.055Z,52.77
2022-10-18T04:24:50.168Z,52.77
2022-10-18T04:25:50.252Z,52.76
2022-10-18T04:26:50.295Z,52.74
2022-10-18T04:27:50.438Z,52.76
2022-10-18T04:28:50.555Z,52.76
2022-10-18T04:29:50.561Z,52.75
2022-10-18T04:30:50.618Z,52.74
2022-10-18T04:31:50.709Z,52.75
2022-10-18T04:32:50.793Z,52.74
2022-10-18T04:33:50.887Z,52.73
2022-10-18T04:34:50.972Z,52.73
2022-10-18T04:35:51.029Z,52.73
2022-10-18T04:36:51.087Z,52.73
2022-10-18T04:37:51.231Z,52.77
2022-10-18T04:38:51.237Z,52.78
2022-10-18T04:39:53.603Z,52.73
2022-10-18T04:40:51.424Z,52.79
2022-10-18T04:41:51.522Z,52.88
2022-10-18T04:42:51.630Z,52.87
2022-10-18T04:43:51.671Z,52.86
2022-10-18T04:44:51.767Z,52.89
2022-10-18T04:45:51.844Z,52.86
2022-10-18T04:46:51.918Z,52.84
2022-10-18T04:47:51.978Z,52.81
2022-10-18T04:48:52.031Z,52.90
2022-10-18T04:49:52.130Z,52.82
2022-10-18T04:50:52.216Z,52.86
2022-10-18T04:51:52.270Z,53.22
2022-10-18T04:52:52.359Z,53.05
2022-10-18T04:53:52.446Z,53.22
2022-10-18T04:54:52.515Z,53.10
2022-10-18T04:55:52.628Z,53.02
2022-10-18T04:56:52.689Z,52.95
2022-10-18T04:57:52.770Z,52.93
2022-10-18T04:58:52.827Z,52.89
2022-10-18T04:59:52.926Z,52.94
2022-10-18T05:00:53.031Z,53.04
2022-10-18T05:01:53.143Z,53.22
2022-10-18T05:02:53.116Z,53.08
2022-10-18T05:03:53.193Z,53.16
2022-10-18T05:04:53.267Z,53.06
2022-10-18T05:06:02.599Z,53.01
2022-10-18T05:06:53.449Z,53.02
2022-10-18T05:07:53.523Z,53.02
2022-10-18T05:08:53.595Z,53.10
2022-10-18T05:09:53.705Z,53.04
2022-10-18T05:10:53.834Z,52.97
2022-10-18T05:11:53.832Z,52.88
2022-10-18T05:12:53.931Z,52.79
2022-10-18T05:13:54.001Z,52.76
2022-10-18T05:14:56.240Z,52.70
2022-10-18T05:15:54.153Z,52.67
2022-10-18T05:16:54.237Z,52.65
2022-10-18T05:17:54.310Z,52.63
2022-10-18T05:18:54.406Z,52.64
2022-10-18T05:19:54.473Z,52.62
2022-10-18T05:20:54.583Z,52.62
2022-10-18T05:21:54.631Z,52.62
2022-10-18T05:22:54.747Z,52.61
2022-10-18T05:23:54.852Z,52.61
2022-10-18T05:24:54.894Z,52.63
2022-10-18T05:25:55.013Z,52.63
2022-10-18T05:26:55.053Z,52.62
2022-10-18T05:27:55.123Z,52.63
2022-10-18T05:28:55.308Z,52.59
2022-10-18T05:29:55.289Z,52.58
2022-10-18T05:30:55.355Z,52.55
2022-10-18T05:31:55.444Z,52.55
2022-10-18T05:32:55.517Z,52.56
2022-10-18T05:33:55.617Z,52.55
2022-10-18T05:34:55.726Z,52.53
2022-10-18T05:35:55.762Z,52.53
2022-10-18T05:36:55.864Z,52.53
2022-10-18T05:37:55.909Z,52.53
2022-10-18T05:38:57.570Z,52.53
2022-10-18T05:39:56.090Z,52.54
2022-10-18T05:40:56.148Z,52.53
2022-10-18T05:41:56.211Z,52.53
2022-10-18T05:42:56.303Z,52.49
2022-10-18T05:43:56.401Z,52.49
2022-10-18T05:44:56.512Z,52.49
2022-10-18T05:45:56.562Z,52.50
2022-10-18T05:46:56.648Z,52.51
2022-10-18T05:47:56.706Z,52.52
2022-10-18T05:48:56.786Z,52.49
2022-10-18T05:49:56.901Z,52.49
2022-10-18T05:50:56.939Z,52.50
2022-10-18T05:51:57.096Z,52.51
2022-10-18T05:53:02.707Z,52.47
2022-10-18T05:53:57.169Z,52.46
2022-10-18T05:54:57.306Z,52.44
2022-10-18T05:55:57.324Z,52.38
2022-10-18T05:56:57.433Z,52.38
2022-10-18T05:57:57.505Z,52.33
2022-10-18T05:58:57.574Z,52.34
2022-10-18T05:59:57.658Z,52.32
2022-10-18T06:00:57.719Z,52.31
2022-10-18T06:01:57.836Z,52.27
2022-10-18T06:03:00.230Z,52.27
2022-10-18T06:03:57.942Z,52.27
2022-10-18T06:04:58.034Z,52.24
2022-10-18T06:05:58.100Z,52.22
2022-10-18T06:06:58.157Z,52.18
2022-10-18T06:07:58.247Z,52.16
2022-10-18T06:08:58.332Z,52.14
2022-10-18T06:09:58.411Z,52.13
2022-10-18T06:10:58.480Z,52.07
2022-10-18T06:11:58.544Z,52.09
2022-10-18T06:12:58.623Z,52.02
2022-10-18T06:13:58.728Z,52.00
2022-10-18T06:14:58.797Z,51.98
2022-10-18T06:15:58.828Z,51.99
2022-10-18T06:16:58.919Z,51.97
2022-10-18T06:17:58.998Z,51.97
2022-10-18T06:18:59.113Z,51.99
2022-10-18T06:19:59.122Z,52.04
2022-10-18T06:20:59.250Z,52.07
2022-10-18T06:21:59.273Z,52.11
2022-10-18T06:22:59.384Z,52.18
2022-10-18T06:23:59.461Z,52.22
2022-10-18T06:24:59.526Z,52.21
2022-10-18T06:25:59.612Z,52.23
2022-10-18T06:26:59.732Z,52.25
2022-10-18T06:27:59.758Z,52.27
2022-10-18T06:28:59.997Z,52.30
2022-10-18T06:29:59.909Z,52.33
2022-10-18T06:31:00.029Z,52.33
2022-10-18T06:32:00.103Z,52.34
2022-10-18T06:33:00.160Z,52.34
2022-10-18T06:34:00.263Z,52.36
2022-10-18T06:35:00.318Z,52.38
2022-10-18T06:36:00.390Z,52.39
2022-10-18T06:37:00.485Z,52.38
2022-10-18T06:38:00.534Z,52.37
2022-10-18T06:39:00.629Z,52.38
2022-10-18T06:40:00.678Z,52.37
2022-10-18T06:41:00.762Z,52.38
2022-10-18T06:42:00.834Z,52.40
2022-10-18T06:43:19.431Z,52.40
2022-10-18T06:44:01.003Z,52.43
2022-10-18T06:45:01.085Z,52.43
2022-10-18T06:46:01.184Z,52.42
2022-10-18T06:47:01.274Z,52.44
2022-10-18T06:48:01.325Z,52.44
2022-10-18T06:49:01.504Z,52.45
2022-10-18T06:50:01.499Z,52.46
2022-10-18T06:51:01.541Z,52.44
2022-10-18T06:52:01.616Z,52.47
2022-10-18T06:53:01.718Z,52.47
2022-10-18T06:54:18.811Z,52.49
2022-10-18T06:55:04.198Z,52.52
2022-10-18T06:56:01.973Z,52.54
2022-10-18T06:57:02.013Z,52.52
2022-10-18T06:58:02.072Z,52.50
2022-10-18T06:59:02.181Z,52.50
2022-10-18T07:00:02.271Z,52.47
2022-10-18T07:01:02.293Z,52.45
2022-10-18T07:02:02.487Z,52.46
2022-10-18T07:03:02.473Z,52.45
2022-10-18T07:04:02.586Z,52.48
2022-10-18T07:05:02.630Z,52.48
2022-10-18T07:06:02.728Z,52.49
2022-10-18T07:07:02.815Z,52.51
2022-10-18T07:08:02.854Z,52.50
2022-10-18T07:09:02.981Z,52.51
2022-10-18T07:10:03.026Z,52.49
2022-10-18T07:11:03.136Z,52.49
2022-10-18T07:12:03.223Z,52.49
2022-10-18T07:13:27.433Z,52.49
2022-10-18T07:14:03.398Z,52.50
2022-10-18T07:15:08.251Z,52.50
2022-10-18T07:16:03.563Z,52.52
2022-10-18T07:17:03.648Z,52.49
2022-10-18T07:18:03.669Z,52.49
2022-10-18T07:19:03.814Z,52.48
2022-10-18T07:20:03.859Z,52.49
2022-10-18T07:21:03.938Z,52.47
2022-10-18T07:22:04.022Z,52.46
2022-10-18T07:23:04.092Z,52.48
2022-10-18T07:24:04.190Z,52.48
2022-10-18T07:25:04.256Z,52.47
2022-10-18T07:26:04.339Z,52.48
2022-10-18T07:27:04.420Z,52.48
2022-10-18T07:28:04.532Z,52.51
2022-10-18T07:29:04.709Z,52.48
2022-10-18T07:30:04.676Z,52.49
2022-10-18T07:31:06.091Z,52.51
2022-10-18T07:32:04.879Z,52.50
2022-10-18T07:33:04.932Z,52.51
2022-10-18T07:34:05.009Z,52.48
2022-10-18T07:35:05.143Z,52.51
2022-10-18T07:36:05.160Z,52.48
2022-10-18T07:37:05.244Z,52.45
2022-10-18T07:38:05.326Z,52.46
2022-10-18T07:39:05.419Z,52.45
2022-10-18T07:40:05.491Z,52.46
2022-10-18T07:41:05.571Z,52.44
2022-10-18T07:42:05.647Z,52.48
2022-10-18T07:43:08.249Z,52.50
2022-10-18T07:44:05.820Z,52.57
2022-10-18T07:45:05.922Z,52.59
2022-10-18T07:46:05.975Z,52.58
2022-10-18T07:47:06.086Z,52.64
2022-10-18T07:48:06.122Z,52.65
2022-10-18T07:49:06.209Z,52.67
2022-10-18T07:50:06.275Z,52.65
2022-10-18T07:51:06.367Z,52.64
2022-10-18T07:52:06.479Z,52.66
2022-10-18T07:53:06.571Z,52.67
2022-10-18T07:54:06.618Z,52.67
2022-10-18T07:55:06.700Z,52.67
2022-10-18T07:56:08.780Z,52.65
2022-10-18T07:57:06.920Z,52.67
2022-10-18T07:58:06.989Z,52.67
2022-10-18T07:59:07.058Z,52.67
2022-10-18T08:00:07.103Z,52.69
2022-10-18T08:01:07.260Z,52.70
2022-10-18T08:02:07.263Z,52.69
2022-10-18T08:03:07.355Z,52.68
2022-10-18T08:04:09.079Z,52.68
2022-10-18T08:05:07.505Z,52.69
2022-10-18T08:06:07.592Z,52.68
2022-10-18T08:07:07.680Z,52.67
2022-10-18T08:08:08.214Z,52.65
2022-10-18T08:09:07.806Z,52.64
2022-10-18T08:10:07.905Z,52.64
2022-10-18T08:11:07.975Z,52.64
2022-10-18T08:12:08.049Z,52.59
2022-10-18T08:13:08.139Z,52.53
2022-10-18T08:14:08.208Z,52.51
2022-10-18T08:15:08.306Z,52.51
2022-10-18T08:16:08.363Z,52.49
2022-10-18T08:17:08.461Z,52.48
2022-10-18T08:18:08.575Z,52.49
2022-10-18T08:19:08.622Z,52.48
2022-10-18T08:20:12.406Z,52.49
2022-10-18T08:21:08.774Z,52.53
2022-10-18T08:22:08.867Z,52.53
2022-10-18T08:23:09.002Z,52.51
2022-10-18T08:24:09.031Z,52.51
2022-10-18T08:25:09.147Z,52.53
2022-10-18T08:26:09.208Z,52.51
2022-10-18T08:27:09.301Z,52.50
2022-10-18T08:28:09.424Z,52.51
2022-10-18T08:29:21.894Z,52.47
2022-10-18T08:30:09.538Z,52.57
2022-10-18T08:31:09.603Z,52.59
2022-10-18T08:32:09.684Z,52.59
2022-10-18T08:33:09.795Z,52.61
2022-10-18T08:34:09.855Z,52.62
2022-10-18T08:35:09.946Z,52.65
2022-10-18T08:36:09.987Z,52.67
2022-10-18T08:37:10.101Z,52.66
2022-10-18T08:38:11.451Z,52.68
2022-10-18T08:39:10.251Z,52.69
2022-10-18T08:40:10.277Z,52.70
2022-10-18T08:41:10.366Z,52.70
2022-10-18T08:42:10.438Z,52.67
2022-10-18T08:43:10.580Z,52.71
2022-10-18T08:44:10.621Z,52.70
2022-10-18T08:45:23.293Z,52.69
2022-10-18T08:46:10.777Z,52.74
2022-10-18T08:47:10.880Z,52.75
2022-10-18T08:48:10.950Z,52.75
2022-10-18T08:49:11.031Z,52.73
2022-10-18T08:50:11.112Z,52.77
2022-10-18T08:51:11.187Z,52.77
2022-10-18T08:52:11.282Z,52.73
2022-10-18T08:53:11.367Z,52.71
2022-10-18T08:54:11.444Z,52.70
2022-10-18T08:55:11.525Z,52.70
2022-10-18T08:56:11.598Z,52.68
2022-10-18T08:57:11.774Z,52.67
2022-10-18T08:58:11.774Z,52.66
2022-10-18T08:59:11.851Z,52.66
2022-10-18T09:00:11.934Z,52.67
2022-10-18T09:01:12.010Z,52.70
2022-10-18T09:02:12.100Z,52.68
2022-10-18T09:03:12.236Z,52.71
2022-10-18T09:04:12.249Z,52.74
2022-10-18T09:05:12.337Z,52.84
2022-10-18T09:06:12.410Z,52.86
2022-10-18T09:07:12.495Z,52.85
2022-10-18T09:08:12.570Z,52.84
2022-10-18T09:09:12.665Z,52.82
2022-10-18T09:10:12.838Z,52.82
2022-10-18T09:11:12.939Z,52.82
2022-10-18T09:12:12.908Z,52.76
2022-10-18T09:13:12.946Z,52.65
2022-10-18T09:14:13.018Z,52.65
2022-10-18T09:15:13.150Z,52.70
2022-10-18T09:16:13.198Z,52.69
2022-10-18T09:17:15.934Z,52.68
2022-10-18T09:18:13.392Z,52.67
2022-10-18T09:19:13.446Z,52.75
2022-10-18T09:20:13.528Z,52.85
2022-10-18T09:21:13.642Z,52.85
2022-10-18T09:22:13.697Z,52.84
2022-10-18T09:23:13.779Z,52.91
2022-10-18T09:24:13.855Z,52.93
2022-10-18T09:25:13.954Z,52.93
2022-10-18T09:26:14.012Z,52.93
2022-10-18T09:27:14.116Z,52.93
2022-10-18T09:28:14.191Z,52.84
2022-10-18T09:29:14.393Z,52.77
2022-10-18T09:30:14.346Z,52.80
2022-10-18T09:31:14.442Z,52.82
2022-10-18T09:32:14.536Z,52.85
2022-10-18T09:33:14.599Z,52.86
2022-10-18T09:34:14.677Z,52.89
2022-10-18T09:35:14.780Z,52.86
2022-10-18T09:36:14.835Z,52.86
2022-10-18T09:37:14.937Z,52.87
2022-10-18T09:38:15.057Z,52.87
2022-10-18T09:39:15.149Z,52.87
2022-10-18T09:40:18.094Z,52.86
2022-10-18T09:41:15.238Z,52.88
2022-10-18T09:42:15.351Z,52.85
2022-10-18T09:43:15.412Z,52.84
2022-10-18T09:44:15.564Z,52.83
2022-10-18T09:45:15.600Z,52.84
2022-10-18T09:46:15.679Z,52.83
2022-10-18T09:47:16.855Z,52.83
2022-10-18T09:48:15.868Z,52.85
2022-10-18T09:49:16.468Z,52.85
2022-10-18T09:50:16.050Z,52.83
2022-10-18T09:51:16.094Z,52.85
2022-10-18T09:52:16.197Z,52.84
2022-10-18T09:53:16.263Z,52.83
2022-10-18T09:54:16.388Z,52.83
2022-10-18T09:55:16.388Z,52.84
2022-10-18T09:56:16.468Z,52.82
2022-10-18T09:57:16.567Z,52.81
2022-10-18T09:58:16.646Z,52.82
2022-10-18T09:59:16.706Z,52.80
2022-10-18T10:00:16.790Z,52.82
2022-10-18T10:01:16.859Z,52.81
2022-10-18T10:02:17.007Z,52.82
2022-10-18T10:03:17.033Z,52.82
2022-10-18T10:04:17.118Z,52.84
2022-10-18T10:05:17.153Z,52.84
2022-10-18T10:06:17.326Z,52.86
2022-10-18T10:07:17.311Z,52.86
2022-10-18T10:08:17.469Z,52.84
2022-10-18T10:09:17.484Z,52.83
2022-10-18T10:10:17.572Z,52.86
2022-10-18T10:11:17.639Z,52.83
2022-10-18T10:12:17.955Z,52.84
2022-10-18T10:13:17.798Z,52.84
2022-10-18T10:14:17.920Z,52.84
2022-10-18T10:15:17.940Z,52.88
2022-10-18T10:16:18.034Z,52.88
2022-10-18T10:17:18.120Z,52.90
2022-10-18T10:18:18.258Z,52.87
2022-10-18T10:19:18.234Z,52.86
2022-10-18T10:20:18.348Z,52.88
2022-10-18T10:21:18.441Z,52.88
2022-10-18T10:22:18.502Z,52.86
2022-10-18T10:24:18.651Z,52.88
2022-10-18T10:25:18.725Z,52.89
2022-10-18T10:26:18.816Z,52.89
2022-10-18T10:27:18.873Z,52.89
2022-10-18T10:28:18.960Z,52.89
2022-10-18T10:29:33.488Z,52.93
2022-10-18T10:30:19.159Z,52.94
2022-10-18T10:31:19.183Z,53.01
2022-10-18T10:32:19.309Z,53.04
2022-10-18T10:33:19.334Z,53.07
2022-10-18T10:34:19.440Z,53.09
2022-10-18T10:35:33.992Z,53.11
2022-10-18T10:36:19.594Z,53.17
2022-10-18T10:37:19.637Z,53.17
2022-10-18T10:38:19.744Z,53.15
2022-10-18T10:39:19.792Z,53.19
2022-10-18T10:40:22.135Z,53.17
2022-10-18T10:41:20.037Z,53.17
2022-10-18T10:42:20.050Z,53.17
2022-10-18T10:43:36.509Z,53.20
2022-10-18T10:44:20.196Z,53.26
2022-10-18T10:45:20.305Z,53.21
2022-10-18T10:46:20.391Z,53.23
2022-10-18T10:47:20.485Z,53.23
2022-10-18T10:48:20.508Z,53.26
2022-10-18T10:49:39.262Z,53.27
2022-10-18T10:50:20.711Z,53.34
2022-10-18T10:51:20.735Z,53.34
2022-10-18T10:52:28.751Z,53.31
2022-10-18T10:53:20.936Z,53.32
2022-10-18T10:54:20.975Z,53.47
2022-10-18T10:55:34.994Z,53.54
2022-10-18T10:56:21.163Z,53.55
2022-10-18T10:57:21.271Z,53.50
2022-10-18T10:58:21.341Z,53.47
2022-10-18T10:59:21.426Z,53.37
2022-10-18T11:00:21.513Z,53.38
2022-10-18T11:01:21.569Z,53.28
2022-10-18T11:02:21.664Z,53.08
2022-10-18T11:03:30.012Z,53.10
2022-10-18T11:04:21.900Z,53.03
2022-10-18T11:05:21.911Z,53.00
2022-10-18T11:06:21.987Z,53.01
2022-10-18T11:07:22.066Z,53.10
2022-10-18T11:08:24.056Z,53.11
2022-10-18T11:09:22.253Z,53.09
2022-10-18T11:10:22.294Z,53.06
2022-10-18T11:11:23.318Z,53.01
2022-10-18T11:12:22.469Z,53.00
2022-10-18T11:13:22.524Z,53.01
2022-10-18T11:14:26.852Z,53.03
2022-10-18T11:15:22.726Z,53.01
2022-10-18T11:16:22.761Z,53.03
2022-10-18T11:17:22.879Z,53.03
2022-10-18T11:18:22.923Z,53.03
2022-10-18T11:19:25.155Z,53.02
2022-10-18T11:20:23.074Z,53.05
2022-10-18T11:21:23.128Z,53.05
2022-10-18T11:22:23.221Z,53.03
2022-10-18T11:23:23.341Z,53.01
2022-10-18T11:24:23.567Z,53.01
2022-10-18T11:25:23.499Z,53.03
2022-10-18T11:26:23.544Z,52.98
2022-10-18T11:27:23.642Z,52.95
2022-10-18T11:28:23.847Z,52.95
2022-10-18T11:29:23.780Z,52.96
2022-10-18T11:30:23.906Z,52.97
2022-10-18T11:31:23.953Z,52.96
2022-10-18T11:32:24.007Z,52.98
2022-10-18T11:33:33.649Z,52.97
2022-10-18T11:34:24.211Z,53.00
2022-10-18T11:35:24.268Z,52.99
2022-10-18T11:37:30.268Z,53.02
2022-10-18T11:38:24.487Z,53.04
2022-10-18T11:39:24.566Z,53.00
2022-10-18T11:40:24.633Z,53.01
2022-10-18T11:41:24.774Z,52.98
2022-10-18T11:42:24.778Z,53.01
2022-10-18T11:43:30.305Z,52.97
2022-10-18T11:44:24.955Z,53.03
2022-10-18T11:45:25.099Z,53.01
2022-10-18T11:46:25.099Z,53.01
2022-10-18T11:47:25.192Z,53.02
2022-10-18T11:48:25.265Z,53.04
2022-10-18T11:49:25.373Z,53.03
2022-10-18T11:50:25.433Z,53.04
2022-10-18T11:51:33.956Z,53.03
2022-10-18T11:52:25.684Z,53.05
2022-10-18T11:53:25.629Z,53.02
2022-10-18T11:54:25.732Z,53.02
2022-10-18T11:55:28.939Z,53.04
2022-10-18T11:56:25.874Z,53.05
2022-10-18T11:57:25.948Z,53.05
2022-10-18T11:58:26.110Z,53.05
2022-10-18T11:59:26.122Z,53.00
2022-10-18T12:01:28.506Z,53.01
2022-10-18T12:02:26.418Z,52.98
2022-10-18T12:03:26.420Z,52.97
2022-10-18T12:04:26.564Z,52.93
2022-10-18T12:05:26.581Z,52.87
2022-10-18T12:06:26.682Z,52.87
2022-10-18T12:07:30.231Z,52.90
2022-10-18T12:08:26.825Z,52.91
2022-10-18T12:09:26.886Z,52.90
2022-10-18T12:10:39.275Z,52.91
2022-10-18T12:11:27.059Z,52.92
2022-10-18T12:12:27.152Z,52.93
2022-10-18T12:13:27.261Z,52.89
2022-10-18T12:14:27.321Z,52.89
2022-10-18T12:15:27.395Z,52.89
2022-10-18T12:16:49.600Z,52.91
2022-10-18T12:17:42.717Z,52.97
2022-10-18T12:18:27.654Z,53.01
2022-10-18T12:19:27.724Z,52.99
2022-10-18T12:20:27.808Z,53.00
2022-10-18T12:21:27.869Z,52.95
2022-10-18T12:22:27.967Z,52.93
2022-10-18T12:23:28.045Z,52.95
2022-10-18T12:24:28.180Z,52.99
2022-10-18T12:25:28.218Z,53.01
2022-10-18T12:26:28.329Z,53.04
2022-10-18T12:27:28.367Z,53.08
2022-10-18T12:28:28.511Z,53.09
2022-10-18T12:29:28.577Z,53.17
2022-10-18T12:30:28.645Z,53.18
2022-10-18T12:31:28.722Z,53.19
2022-10-18T12:32:28.868Z,53.17
2022-10-18T12:33:29.239Z,53.23
2022-10-18T12:34:28.941Z,53.25
2022-10-18T12:35:28.995Z,53.21
2022-10-18T12:36:29.088Z,53.17
2022-10-18T12:37:29.403Z,53.18
2022-10-18T12:38:29.258Z,53.15
2022-10-18T12:39:38.858Z,53.10
2022-10-18T12:40:29.422Z,53.17
2022-10-18T12:41:29.497Z,53.19
2022-10-18T12:42:29.581Z,53.16
2022-10-18T12:43:29.677Z,53.09
2022-10-18T12:44:29.760Z,53.11
2022-10-18T12:45:29.852Z,53.09
2022-10-18T12:46:30.024Z,53.01
2022-10-18T12:47:30.452Z,53.09
2022-10-18T12:48:30.106Z,53.07
2022-10-18T12:49:30.164Z,53.08
2022-10-18T12:50:30.264Z,53.09
2022-10-18T12:51:30.345Z,53.08
2022-10-18T12:52:30.399Z,53.03
2022-10-18T12:53:30.497Z,52.99
2022-10-18T12:54:30.549Z,53.00
2022-10-18T12:55:30.691Z,52.95
2022-10-18T12:56:30.702Z,52.94